Time;durP1;ratioP1;P1;durP2;ratioP2;P2;SDS_P1;SDS_P2;PMS_P1;PMS_P2;Temp;Humidity;BMP_temperature;BMP_pressure;BME280_temperature;BME280_humidity;BME280_pressure;Samples;Min_cycle;Max_cycle;Signal;HPM_P1;HPM_P2
2021/01/30 00:00:14;;;;;;;7.73;2.60;;;3.50;99.90;;;;;;5044176;28;20202;-79
2021/01/30 00:02:40;;;;;;;7.00;2.63;;;3.50;99.90;;;;;;5043195;28;20209;-76
2021/01/30 00:05:09;;;;;;;5.93;2.80;;;3.50;99.90;;;;;;5044291;28;20201;-78
2021/01/30 00:07:36;;;;;;;5.43;2.40;;;3.50;99.90;;;;;;5044651;28;20496;-77
2021/01/30 00:10:03;;;;;;;6.00;2.90;;;3.50;99.90;;;;;;5044584;28;20604;-76
2021/01/30 00:12:29;;;;;;;8.47;2.50;;;3.50;99.90;;;;;;5042581;28;20214;-76
2021/01/30 00:14:56;;;;;;;5.23;2.87;;;3.40;99.90;;;;;;5044614;28;20205;-76
2021/01/30 00:17:23;;;;;;;6.23;2.57;;;3.40;99.90;;;;;;5044300;28;20202;-76
2021/01/30 00:19:49;;;;;;;3.97;2.87;;;3.40;99.90;;;;;;5032948;28;20696;-77
2021/01/30 00:22:18;;;;;;;8.57;3.10;;;3.40;99.90;;;;;;5024766;28;20230;-77
2021/01/30 00:24:46;;;;;;;7.30;3.20;;;3.30;99.90;;;;;;5035330;28;20213;-77
2021/01/30 00:27:15;;;;;;;8.97;3.67;;;3.30;99.90;;;;;;5041175;28;20206;-76
2021/01/30 00:29:42;;;;;;;8.50;3.20;;;3.20;99.90;;;;;;5024329;28;20218;-76
2021/01/30 00:32:11;;;;;;;8.47;3.50;;;3.10;99.90;;;;;;5024573;28;20257;-78
2021/01/30 00:34:38;;;;;;;8.40;3.30;;;3.10;99.90;;;;;;5044155;28;20209;-78
2021/01/30 00:37:12;;;;;;;9.97;3.20;;;3.10;99.90;;;;;;5042991;28;20213;-76
2021/01/30 00:39:39;;;;;;;6.83;3.10;;;3.00;99.90;;;;;;5043894;28;20194;-76
2021/01/30 00:42:07;;;;;;;4.60;3.10;;;3.00;99.90;;;;;;5042990;28;20225;-77
2021/01/30 00:44:34;;;;;;;6.53;3.50;;;3.00;99.90;;;;;;5044235;28;20209;-77
2021/01/30 00:47:00;;;;;;;8.30;4.00;;;3.00;99.90;;;;;;5043277;28;20264;-77
2021/01/30 00:49:27;;;;;;;9.20;3.57;;;2.90;99.90;;;;;;5044219;28;20212;-77
2021/01/30 00:51:53;;;;;;;7.87;3.73;;;2.80;99.90;;;;;;5028022;28;20252;-76
2021/01/30 00:54:20;;;;;;;7.47;3.13;;;2.70;99.90;;;;;;5042767;28;20198;-77
2021/01/30 00:56:50;;;;;;;7.20;3.47;;;2.70;99.90;;;;;;5043578;28;20217;-79
2021/01/30 00:59:17;;;;;;;5.60;3.17;;;2.70;99.90;;;;;;5043281;28;20202;-77
2021/01/30 01:01:43;;;;;;;5.87;3.40;;;2.60;99.90;;;;;;5043561;28;20229;-79
2021/01/30 01:04:10;;;;;;;10.13;3.70;;;2.60;99.90;;;;;;5038189;28;20211;-77
2021/01/30 01:06:36;;;;;;;11.67;3.47;;;2.60;99.90;;;;;;5023640;28;20195;-79
2021/01/30 01:09:04;;;;;;;6.40;3.47;;;2.60;99.90;;;;;;5024518;28;20206;-78
2021/01/30 01:11:31;;;;;;;6.10;3.50;;;2.50;99.90;;;;;;5030688;28;20206;-78
2021/01/30 01:13:58;;;;;;;9.13;4.13;;;2.50;99.90;;;;;;5042934;28;20313;-79
2021/01/30 01:16:24;;;;;;;9.03;3.20;;;2.50;99.90;;;;;;5044064;28;20210;-78
2021/01/30 01:18:51;;;;;;;6.43;3.03;;;2.50;99.90;;;;;;5043460;28;20210;-79
2021/01/30 01:21:17;;;;;;;9.00;3.30;;;2.50;99.90;;;;;;5043660;28;20232;-79
2021/01/30 01:23:44;;;;;;;7.83;4.27;;;2.50;99.90;;;;;;5042022;28;20563;-77
2021/01/30 01:26:12;;;;;;;5.03;3.23;;;2.50;99.90;;;;;;5044341;28;20248;-79
2021/01/30 01:28:38;;;;;;;8.30;3.90;;;2.40;99.90;;;;;;5035411;28;20551;-80
2021/01/30 01:31:05;;;;;;;6.10;3.37;;;2.40;99.90;;;;;;5024167;28;20211;-76
2021/01/30 01:33:32;;;;;;;9.50;4.50;;;2.30;99.90;;;;;;5031438;28;20216;-77
2021/01/30 01:35:59;;;;;;;6.87;3.20;;;2.30;99.90;;;;;;5042883;28;20209;-78
2021/01/30 01:38:26;;;;;;;5.13;3.17;;;2.20;99.90;;;;;;5043687;28;20228;-79
2021/01/30 01:40:53;;;;;;;6.30;3.60;;;2.20;99.90;;;;;;5043366;28;20226;-78
2021/01/30 01:43:24;;;;;;;5.50;3.77;;;2.20;99.90;;;;;;5042119;28;20210;-77
2021/01/30 01:46:00;;;;;;;5.20;3.00;;;2.10;99.90;;;;;;5043411;28;20190;-77
2021/01/30 01:48:32;;;;;;;6.93;3.60;;;2.20;99.90;;;;;;5042409;28;20205;-79
2021/01/30 01:51:03;;;;;;;4.80;3.40;;;2.10;99.90;;;;;;5043430;28;20200;-81
2021/01/30 01:53:33;;;;;;;7.73;3.53;;;2.10;99.90;;;;;;5043338;28;20206;-79
2021/01/30 01:56:05;;;;;;;4.60;3.40;;;2.10;99.90;;;;;;5030633;28;20675;-79
2021/01/30 01:58:35;;;;;;;9.23;3.73;;;2.10;99.90;;;;;;5027871;28;20240;-80
2021/01/30 02:01:02;;;;;;;5.00;3.30;;;2.10;99.90;;;;;;5044309;28;20741;-80
2021/01/30 02:03:32;;;;;;;6.90;3.37;;;2.10;99.90;;;;;;5043577;28;20657;-78
2021/01/30 02:06:00;;;;;;;6.03;3.40;;;2.00;99.90;;;;;;5033703;28;20260;-78
2021/01/30 02:08:29;;;;;;;6.73;4.23;;;1.90;99.90;;;;;;5023812;28;20217;-78
2021/01/30 02:10:56;;;;;;;5.60;3.53;;;1.90;99.90;;;;;;5022230;28;20206;-76
2021/01/30 02:13:26;;;;;;;5.83;3.70;;;1.90;99.90;;;;;;5023369;28;20214;-78
2021/01/30 02:15:55;;;;;;;3.57;3.27;;;1.90;99.90;;;;;;5023477;28;20203;-78
2021/01/30 02:18:36;;;;;;;5.37;3.80;;;1.90;99.90;;;;;;5022927;28;20599;-78
2021/01/30 02:21:36;;;;;;;4.70;2.97;;;1.80;99.90;;;;;;5023242;28;20865;-78
2021/01/30 02:24:36;;;;;;;5.63;3.27;;;1.70;99.90;;;;;;4989628;28;20206;-78
2021/01/30 02:27:41;;;;;;;6.53;3.60;;;1.70;99.90;;;;;;5023771;28;20233;-78
2021/01/30 02:30:43;;;;;;;6.07;3.70;;;1.70;99.90;;;;;;5023593;28;20532;-78
2021/01/30 02:33:34;;;;;;;5.20;3.20;;;1.70;99.90;;;;;;5022806;28;20286;-78
2021/01/30 02:36:14;;;;;;;3.53;3.10;;;1.70;99.90;;;;;;5025370;28;20294;-79
2021/01/30 02:38:46;;;;;;;7.13;4.27;;;1.70;99.90;;;;;;5042923;28;20213;-78
2021/01/30 02:41:18;;;;;;;4.63;3.03;;;1.70;99.90;;;;;;5043431;28;20554;-78
2021/01/30 02:43:48;;;;;;;4.33;3.33;;;1.70;99.90;;;;;;5043898;28;20206;-80
2021/01/30 02:46:20;;;;;;;6.23;3.10;;;1.60;99.90;;;;;;5042300;28;20418;-79
2021/01/30 02:48:50;;;;;;;3.87;3.13;;;1.60;99.90;;;;;;5031288;28;20206;-78
2021/01/30 02:51:21;;;;;;;5.43;3.57;;;1.60;99.90;;;;;;5023511;28;20257;-79
2021/01/30 02:53:51;;;;;;;4.10;2.90;;;1.50;99.90;;;;;;5021392;28;20664;-80
2021/01/30 02:56:20;;;;;;;4.77;3.70;;;1.50;99.90;;;;;;5021608;28;20211;-79
2021/01/30 02:58:58;;;;;;;4.03;2.80;;;1.50;99.90;;;;;;5038391;28;20265;-78
2021/01/30 03:01:24;;;;;;;3.37;3.00;;;1.50;99.90;;;;;;5043042;28;20217;-79
2021/01/30 03:03:53;;;;;;;3.70;3.30;;;1.40;99.90;;;;;;5043575;28;20198;-79
2021/01/30 03:06:23;;;;;;;3.47;2.90;;;1.40;99.90;;;;;;5033393;28;20202;-79
2021/01/30 03:08:58;;;;;;;3.90;3.37;;;1.40;99.90;;;;;;5023801;28;20202;-78
2021/01/30 03:11:30;;;;;;;5.23;3.13;;;1.40;99.90;;;;;;5044070;28;20202;-79
2021/01/30 03:13:59;;;;;;;4.47;2.97;;;1.40;99.90;;;;;;5042278;28;20210;-79
2021/01/30 03:16:29;;;;;;;4.20;3.10;;;1.40;99.90;;;;;;5043767;28;20210;-79
2021/01/30 03:19:00;;;;;;;5.87;3.20;;;1.30;99.90;;;;;;5044343;28;20284;-79
2021/01/30 03:21:30;;;;;;;5.30;3.33;;;1.30;99.90;;;;;;5046453;28;20237;-79
2021/01/30 03:23:58;;;;;;;6.13;3.43;;;1.30;99.90;;;;;;5046224;28;20209;-79
2021/01/30 03:26:27;;;;;;;4.30;3.70;;;1.20;99.90;;;;;;5046914;28;20202;-79
2021/01/30 03:28:55;;;;;;;3.60;2.93;;;1.20;99.90;;;;;;5046841;28;20232;-79
2021/01/30 03:31:22;;;;;;;3.70;3.20;;;1.10;99.90;;;;;;5047574;28;20875;-79
2021/01/30 03:33:48;;;;;;;5.47;3.53;;;1.20;99.90;;;;;;5043126;28;20313;-80
2021/01/30 03:36:15;;;;;;;5.27;3.20;;;1.10;99.90;;;;;;5027407;28;20445;-80
2021/01/30 03:38:42;;;;;;;5.50;3.30;;;1.10;99.90;;;;;;5027149;28;20210;-80
2021/01/30 03:41:09;;;;;;;3.40;3.10;;;1.20;99.90;;;;;;5030733;28;20237;-80
2021/01/30 03:43:35;;;;;;;4.33;3.63;;;1.10;99.90;;;;;;5047082;28;20206;-79
2021/01/30 03:46:01;;;;;;;3.73;3.10;;;1.10;99.90;;;;;;5038900;28;20207;-80
2021/01/30 03:48:28;;;;;;;4.20;3.37;;;1.10;99.90;;;;;;5029349;28;20205;-78
2021/01/30 03:50:54;;;;;;;5.13;3.47;;;1.10;99.90;;;;;;5039658;28;20236;-79
2021/01/30 03:53:21;;;;;;;8.53;3.37;;;1.10;99.90;;;;;;5049457;28;20198;-79
2021/01/30 03:55:48;;;;;;;3.33;2.93;;;1.10;99.90;;;;;;5048081;28;20206;-79
2021/01/30 03:58:14;;;;;;;3.67;2.93;;;1.20;99.90;;;;;;5045228;28;20745;-80
2021/01/30 04:00:40;;;;;;;3.20;2.90;;;1.10;99.90;;;;;;5045669;28;20673;-79
2021/01/30 04:03:07;;;;;;;4.07;3.03;;;1.10;99.90;;;;;;5046497;28;20244;-80
2021/01/30 04:05:33;;;;;;;6.30;3.40;;;1.10;99.90;;;;;;5044282;28;20205;-79
2021/01/30 04:08:00;;;;;;;4.10;3.10;;;1.10;99.90;;;;;;5026927;28;20214;-79
2021/01/30 04:10:29;;;;;;;3.70;3.07;;;1.20;99.90;;;;;;5023258;28;20669;-80
2021/01/30 04:12:56;;;;;;;3.50;3.10;;;1.20;99.90;;;;;;5024110;28;20202;-80
2021/01/30 04:15:26;;;;;;;4.67;3.30;;;1.20;99.90;;;;;;5025498;28;20198;-79
2021/01/30 04:17:53;;;;;;;5.17;2.90;;;1.20;99.90;;;;;;5025065;28;20237;-79
2021/01/30 04:20:20;;;;;;;3.97;3.20;;;1.20;99.90;;;;;;5024920;28;20202;-79
2021/01/30 04:22:46;;;;;;;7.27;3.23;;;1.20;99.90;;;;;;5027990;28;20323;-79
2021/01/30 04:25:14;;;;;;;3.80;3.30;;;1.20;99.90;;;;;;5043550;28;20224;-81
2021/01/30 04:27:41;;;;;;;3.73;3.17;;;1.10;99.90;;;;;;5043562;28;20229;-79
2021/01/30 04:30:11;;;;;;;3.93;3.40;;;1.10;99.90;;;;;;5043362;28;20222;-79
2021/01/30 04:32:37;;;;;;;4.40;3.13;;;1.10;99.90;;;;;;5044977;28;20201;-78
2021/01/30 04:35:04;;;;;;;6.10;3.30;;;1.10;99.90;;;;;;5045494;28;20236;-78
2021/01/30 04:37:30;;;;;;;4.67;3.90;;;1.10;99.90;;;;;;5028429;28;20210;-79
2021/01/30 04:39:56;;;;;;;4.60;3.20;;;1.10;99.90;;;;;;5025042;28;20202;-78
2021/01/30 04:42:36;;;;;;;4.90;3.40;;;1.20;99.90;;;;;;5025878;28;20226;-79
2021/01/30 04:45:07;;;;;;;6.13;3.73;;;1.20;99.90;;;;;;5024683;28;20202;-79
2021/01/30 04:47:44;;;;;;;4.27;3.00;;;1.10;99.90;;;;;;5042469;28;20205;-79
2021/01/30 04:50:17;;;;;;;6.83;3.87;;;1.10;99.90;;;;;;5045514;28;20748;-78
2021/01/30 04:52:49;;;;;;;4.37;3.50;;;1.20;99.90;;;;;;5044149;28;20197;-79
2021/01/30 04:55:34;;;;;;;5.80;3.73;;;1.20;99.90;;;;;;5045266;28;20214;-78
2021/01/30 04:58:11;;;;;;;6.57;4.10;;;1.20;99.90;;;;;;5044825;28;20225;-79
2021/01/30 05:01:03;;;;;;;8.07;4.90;;;1.30;99.90;;;;;;5038134;28;20209;-79
2021/01/30 05:03:46;;;;;;;6.40;4.13;;;1.30;99.90;;;;;;5025643;28;20214;-79
2021/01/30 05:06:16;;;;;;;9.07;4.30;;;1.30;99.90;;;;;;5025271;28;20201;-79
2021/01/30 05:08:48;;;;;;;5.73;3.80;;;1.40;99.90;;;;;;5025332;28;20633;-79
2021/01/30 05:11:20;;;;;;;5.57;4.20;;;1.30;99.90;;;;;;5025470;28;20590;-80
2021/01/30 05:13:57;;;;;;;4.80;3.80;;;1.30;99.90;;;;;;5024887;28;20587;-79
2021/01/30 05:16:28;;;;;;;6.13;4.20;;;1.40;99.90;;;;;;5024201;28;20268;-79
2021/01/30 05:19:01;;;;;;;6.10;4.33;;;1.40;99.90;;;;;;5035941;28;20214;-79
2021/01/30 05:21:38;;;;;;;8.40;4.77;;;1.50;99.90;;;;;;5044079;28;20228;-79
2021/01/30 05:24:05;;;;;;;6.13;4.40;;;1.50;99.90;;;;;;5031884;28;20262;-79
2021/01/30 05:26:45;;;;;;;5.63;4.77;;;1.60;99.90;;;;;;5024969;28;20198;-80
2021/01/30 05:29:14;;;;;;;7.57;4.93;;;1.60;99.90;;;;;;5037955;28;20225;-78
2021/01/30 05:31:47;;;;;;;5.60;4.50;;;1.70;99.90;;;;;;5043868;28;20649;-79
2021/01/30 05:34:19;;;;;;;7.30;4.77;;;1.70;99.90;;;;;;5044769;28;20198;-79
2021/01/30 05:36:50;;;;;;;6.07;4.37;;;1.70;99.90;;;;;;5043717;28;20217;-79
2021/01/30 05:39:41;;;;;;;6.23;4.53;;;1.70;99.90;;;;;;5044604;28;20197;-79
2021/01/30 05:42:13;;;;;;;6.43;4.70;;;1.70;99.90;;;;;;5043111;28;20226;-79
2021/01/30 05:44:47;;;;;;;7.37;4.80;;;1.80;99.90;;;;;;5041434;28;20919;-79
2021/01/30 05:47:22;;;;;;;10.40;5.60;;;1.70;99.90;;;;;;5024343;28;20202;-79
2021/01/30 05:50:06;;;;;;;8.30;4.97;;;1.70;99.90;;;;;;5025884;28;20625;-79
2021/01/30 05:52:34;;;;;;;7.83;4.67;;;1.70;99.90;;;;;;5044138;28;20189;-78
2021/01/30 05:55:01;;;;;;;6.23;4.67;;;1.70;99.90;;;;;;5042815;28;20212;-77
2021/01/30 05:57:27;;;;;;;8.43;4.83;;;1.70;99.90;;;;;;5043159;28;20206;-78
2021/01/30 05:59:56;;;;;;;9.67;4.93;;;1.70;99.90;;;;;;5044264;28;20206;-78
2021/01/30 06:02:26;;;;;;;5.87;4.73;;;1.70;99.90;;;;;;5033313;28;20223;-78
2021/01/30 06:04:52;;;;;;;6.87;5.27;;;1.70;99.90;;;;;;5025963;28;20206;-79
2021/01/30 06:07:32;;;;;;;6.47;5.13;;;1.70;99.90;;;;;;5043675;28;20198;-80
2021/01/30 06:10:17;;;;;;;7.03;5.50;;;1.70;99.90;;;;;;5043776;28;20213;-79
2021/01/30 06:12:44;;;;;;;8.23;5.50;;;1.60;99.90;;;;;;5043539;28;20201;-80
2021/01/30 06:15:15;;;;;;;9.93;5.70;;;1.60;99.90;;;;;;5027302;28;20210;-79
2021/01/30 06:17:41;;;;;;;6.87;5.13;;;1.60;99.90;;;;;;5023550;28;20202;-78
2021/01/30 06:20:17;;;;;;;6.57;5.37;;;1.60;99.90;;;;;;5038487;28;20314;-80
2021/01/30 06:22:45;;;;;;;7.63;5.40;;;1.60;99.90;;;;;;5043790;28;20225;-80
2021/01/30 06:25:22;;;;;;;8.60;6.10;;;1.60;99.90;;;;;;5042175;28;20217;-79
2021/01/30 06:27:52;;;;;;;8.40;5.90;;;1.50;99.90;;;;;;5043973;28;20218;-80
2021/01/30 06:30:31;;;;;;;13.90;6.77;;;1.50;99.90;;;;;;5026949;28;20297;-80
2021/01/30 06:33:01;;;;;;;10.83;6.83;;;1.50;99.90;;;;;;5024247;28;20213;-80
2021/01/30 06:35:34;;;;;;;9.97;6.40;;;1.50;99.90;;;;;;5023588;28;20198;-78
2021/01/30 06:38:11;;;;;;;6.77;6.07;;;1.50;99.90;;;;;;5033148;28;20209;-80
2021/01/30 06:40:49;;;;;;;7.83;6.53;;;1.60;99.90;;;;;;5043032;28;20241;-80
2021/01/30 06:43:22;;;;;;;9.70;7.20;;;1.60;99.90;;;;;;5040040;28;20684;-80
2021/01/30 06:45:49;;;;;;;9.87;7.10;;;1.60;99.90;;;;;;5023849;28;20203;-79
2021/01/30 06:48:25;;;;;;;7.73;6.33;;;1.60;99.90;;;;;;5023828;28;20211;-80
2021/01/30 06:50:51;;;;;;;7.57;6.27;;;1.60;99.90;;;;;;5023080;28;20256;-80
2021/01/30 06:53:24;;;;;;;7.17;6.40;;;1.70;99.90;;;;;;5025264;28;20199;-79
2021/01/30 06:55:51;;;;;;;6.47;5.50;;;1.70;99.90;;;;;;5027771;28;20202;-80
2021/01/30 06:58:25;;;;;;;9.43;6.23;;;1.70;99.90;;;;;;5026821;28;20257;-79
2021/01/30 07:01:04;;;;;;;8.57;6.50;;;1.70;99.90;;;;;;5027024;28;20202;-79
2021/01/30 07:03:42;;;;;;;8.87;6.57;;;1.70;99.90;;;;;;5027059;28;20195;-79
2021/01/30 07:06:16;;;;;;;7.57;5.70;;;1.70;99.90;;;;;;5030566;28;20645;-79
2021/01/30 07:09:06;;;;;;;7.87;6.07;;;1.70;99.90;;;;;;5029812;28;20201;-79
2021/01/30 07:11:55;;;;;;;7.67;5.37;;;1.60;99.90;;;;;;5047354;28;20186;-80
2021/01/30 07:14:35;;;;;;;7.83;5.90;;;1.60;99.90;;;;;;5046428;28;20198;-78
2021/01/30 07:17:08;;;;;;;7.60;5.73;;;1.60;99.90;;;;;;5047186;28;20206;-79
2021/01/30 07:19:47;;;;;;;7.73;5.77;;;1.60;99.90;;;;;;5037087;28;20199;-78
2021/01/30 07:22:32;;;;;;;8.23;4.87;;;1.60;99.90;;;;;;5026257;28;20233;-79
2021/01/30 07:25:05;;;;;;;5.97;4.87;;;1.60;99.90;;;;;;5032174;28;20218;-79
2021/01/30 07:27:37;;;;;;;5.63;4.77;;;1.60;99.90;;;;;;5046205;28;20222;-78
2021/01/30 07:30:07;;;;;;;6.23;5.57;;;1.60;99.90;;;;;;5047317;28;20198;-78
2021/01/30 07:32:37;;;;;;;6.70;5.50;;;1.70;99.90;;;;;;5046434;28;20903;-79
2021/01/30 07:35:13;;;;;;;6.47;5.37;;;1.60;99.90;;;;;;5045825;28;20216;-78
2021/01/30 07:37:49;;;;;;;7.40;4.93;;;1.70;99.90;;;;;;5044503;28;20896;-80
2021/01/30 07:40:21;;;;;;;7.20;5.30;;;1.70;99.90;;;;;;5045790;28;20807;-78
2021/01/30 07:42:54;;;;;;;6.20;5.17;;;1.70;99.90;;;;;;5045551;28;20233;-79
2021/01/30 07:45:25;;;;;;;7.67;5.13;;;1.70;99.90;;;;;;5046564;28;20186;-79
2021/01/30 07:48:00;;;;;;;7.73;5.17;;;1.70;99.90;;;;;;5044546;28;20197;-79
2021/01/30 07:50:29;;;;;;;7.30;5.23;;;1.70;99.90;;;;;;5046077;28;20212;-79
2021/01/30 07:53:09;;;;;;;8.23;5.83;;;1.70;99.90;;;;;;5045170;28;20218;-79
2021/01/30 07:55:37;;;;;;;7.40;5.37;;;1.80;99.90;;;;;;5025155;28;20264;-79
2021/01/30 07:58:17;;;;;;;7.23;5.80;;;1.80;99.90;;;;;;5025922;28;20325;-80
2021/01/30 08:00:55;;;;;;;6.77;5.80;;;1.70;99.90;;;;;;5036523;28;20272;-79
2021/01/30 08:03:41;;;;;;;6.63;5.63;;;1.70;99.90;;;;;;5045216;28;20256;-79
2021/01/30 08:06:24;;;;;;;6.70;5.13;;;1.70;99.90;;;;;;5045910;28;20789;-79
2021/01/30 08:08:59;;;;;;;7.97;5.60;;;1.80;99.90;;;;;;5043457;28;20221;-78
2021/01/30 08:11:31;;;;;;;7.23;5.77;;;1.90;99.90;;;;;;5045107;28;20202;-78
2021/01/30 08:14:15;;;;;;;7.97;6.03;;;1.90;99.90;;;;;;5044578;28;20215;-78
2021/01/30 08:16:55;;;;;;;8.37;6.00;;;1.90;99.90;;;;;;5045021;28;20533;-77
2021/01/30 08:19:32;;;;;;;8.00;5.73;;;1.90;99.90;;;;;;5044108;28;20201;-81
2021/01/30 08:22:02;;;;;;;6.90;5.40;;;1.90;99.90;;;;;;5044455;28;20253;-82
2021/01/30 08:24:34;;;;;;;8.17;5.70;;;1.90;99.90;;;;;;5047626;28;20190;-80
2021/01/30 08:27:08;;;;;;;12.27;5.97;;;1.90;99.90;;;;;;5046834;28;20285;-81
2021/01/30 08:29:37;;;;;;;6.83;5.53;;;1.90;99.90;;;;;;5046603;28;20213;-79
2021/01/30 08:32:31;;;;;;;8.03;5.77;;;1.90;99.90;;;;;;5046065;28;20194;-79
2021/01/30 08:34:58;;;;;;;8.50;6.60;;;1.90;99.90;;;;;;5045964;28;20233;-80
2021/01/30 08:54:47;;;;;;;9.57;6.70;;;2.10;99.90;;;;;;4899882;28;20204;-80
2021/01/30 08:57:42;;;;;;;9.53;6.80;;;2.10;99.90;;;;;;4982805;28;20212;-80
2021/01/30 09:00:33;;;;;;;7.27;6.00;;;2.10;99.90;;;;;;4986331;28;20215;-79
2021/01/30 09:03:01;;;;;;;6.37;5.47;;;2.20;99.90;;;;;;4984339;28;20310;-79
2021/01/30 09:05:43;;;;;;;8.97;6.50;;;2.20;99.90;;;;;;4973393;28;20267;-80
2021/01/30 09:09:01;;;;;;;10.37;7.23;;;2.10;99.90;;;;;;4964797;28;20212;-80
2021/01/30 09:11:49;;;;;;;6.83;5.73;;;2.20;99.90;;;;;;4974345;28;20244;-80
2021/01/30 09:14:36;;;;;;;8.03;6.07;;;2.20;99.90;;;;;;4982897;28;20222;-80
2021/01/30 09:17:22;;;;;;;7.93;6.40;;;2.30;99.90;;;;;;4984380;28;20211;-80
2021/01/30 09:20:02;;;;;;;9.87;6.33;;;2.30;99.90;;;;;;4984529;28;20192;-80
2021/01/30 09:22:45;;;;;;;8.87;6.77;;;2.40;99.90;;;;;;4984385;28;20628;-79
2021/01/30 09:25:20;;;;;;;7.83;6.30;;;2.40;99.90;;;;;;4970098;28;20638;-79
2021/01/30 09:27:48;;;;;;;7.70;6.03;;;2.40;99.90;;;;;;4964193;28;20247;-80
2021/01/30 09:30:30;;;;;;;7.50;6.17;;;2.40;99.90;;;;;;4984577;28;20226;-79
2021/01/30 09:32:58;;;;;;;7.50;6.17;;;2.50;99.90;;;;;;4983029;28;20203;-79
2021/01/30 09:35:32;;;;;;;7.97;6.07;;;2.50;99.90;;;;;;4981435;28;20258;-77
2021/01/30 09:37:58;;;;;;;7.97;6.53;;;2.50;99.90;;;;;;4982825;28;20574;-80
2021/01/30 09:40:27;;;;;;;8.40;6.10;;;2.50;99.90;;;;;;4984704;28;20203;-85
2021/01/30 09:43:01;;;;;;;7.23;5.70;;;2.50;99.90;;;;;;4985024;28;20220;-81
2021/01/30 09:45:29;;;;;;;8.17;5.33;;;2.60;99.90;;;;;;4984961;28;20207;-81
2021/01/30 09:47:57;;;;;;;7.73;5.90;;;2.60;99.90;;;;;;4981982;28;20208;-80
2021/01/30 09:50:29;;;;;;;8.37;6.20;;;2.70;99.90;;;;;;5003120;28;20234;-80
2021/01/30 09:52:58;;;;;;;9.10;6.40;;;2.70;99.90;;;;;;4976722;28;20214;-79
2021/01/30 09:55:25;;;;;;;6.13;5.23;;;2.70;99.90;;;;;;5003887;28;20477;-80
2021/01/30 09:57:56;;;;;;;6.67;5.47;;;2.70;99.90;;;;;;5004810;28;20638;-82
2021/01/30 10:00:31;;;;;;;7.37;5.90;;;2.70;99.90;;;;;;4977847;28;20604;-82
2021/01/30 10:03:06;;;;;;;7.10;5.37;;;2.70;99.90;;;;;;4966457;28;20231;-80
2021/01/30 10:05:33;;;;;;;6.73;5.23;;;2.70;99.90;;;;;;4972448;28;20203;-82
2021/01/30 10:08:14;;;;;;;7.70;5.87;;;2.70;99.90;;;;;;5004485;28;20203;-81
2021/01/30 10:10:40;;;;;;;8.23;6.10;;;2.70;99.90;;;;;;4961766;28;20208;-82
2021/01/30 10:13:13;;;;;;;8.17;5.87;;;2.60;99.90;;;;;;4962630;28;20205;-82
2021/01/30 10:15:42;;;;;;;7.60;6.27;;;2.70;99.90;;;;;;4962118;28;20371;-81
2021/01/30 10:18:14;;;;;;;6.70;5.63;;;2.70;99.90;;;;;;4971251;28;20215;-81
2021/01/30 10:20:49;;;;;;;8.03;5.87;;;2.70;99.90;;;;;;4985141;28;20224;-81
2021/01/30 10:23:29;;;;;;;8.30;6.40;;;2.70;99.90;;;;;;4983009;28;20623;-79
2021/01/30 10:26:04;;;;;;;9.53;6.30;;;2.80;99.90;;;;;;4983546;28;20220;-79
2021/01/30 10:28:40;;;;;;;8.30;6.57;;;2.80;99.90;;;;;;4987955;28;20218;-80
2021/01/30 10:31:08;;;;;;;10.13;6.63;;;2.80;99.90;;;;;;4988109;28;20191;-81
2021/01/30 10:33:34;;;;;;;9.07;6.87;;;3.00;99.90;;;;;;4984481;28;20204;-81
2021/01/30 10:36:02;;;;;;;8.37;6.60;;;3.00;99.90;;;;;;4986271;28;20497;-81
2021/01/30 10:38:30;;;;;;;8.50;6.83;;;3.00;99.90;;;;;;4985103;28;20203;-82
2021/01/30 10:40:58;;;;;;;8.10;6.60;;;3.10;99.90;;;;;;4983405;28;20516;-81
2021/01/30 10:43:29;;;;;;;7.73;6.03;;;3.00;99.90;;;;;;4983895;28;20266;-80
2021/01/30 10:45:58;;;;;;;9.20;6.67;;;3.00;99.90;;;;;;4987861;28;20200;-80
2021/01/30 10:48:26;;;;;;;8.57;6.67;;;3.00;99.90;;;;;;4985964;28;20204;-84
2021/01/30 10:51:00;;;;;;;11.23;8.03;;;3.00;99.90;;;;;;4985134;28;20269;-81
2021/01/30 10:53:32;;;;;;;9.23;7.30;;;3.10;99.90;;;;;;4986277;28;20223;-83
2021/01/30 10:55:59;;;;;;;9.10;7.10;;;3.10;99.90;;;;;;4985365;28;20211;-83
2021/01/30 10:58:35;;;;;;;9.03;7.00;;;3.10;99.90;;;;;;5003860;28;20233;-81
2021/01/30 11:01:05;;;;;;;10.33;7.40;;;3.10;99.90;;;;;;5046064;28;20677;-82
2021/01/30 11:03:46;;;;;;;9.67;6.83;;;3.10;99.90;;;;;;5028344;28;20230;-81
2021/01/30 11:06:15;;;;;;;10.07;7.13;;;3.00;99.90;;;;;;5028628;28;20202;-81
2021/01/30 11:08:43;;;;;;;8.83;7.20;;;3.00;99.90;;;;;;5029366;28;20218;-80
2021/01/30 11:11:13;;;;;;;8.67;6.97;;;3.00;99.90;;;;;;5028335;28;20206;-82
2021/01/30 11:13:40;;;;;;;9.50;7.43;;;3.10;99.90;;;;;;5029040;28;20253;-80
2021/01/30 11:16:09;;;;;;;9.40;7.40;;;3.10;99.90;;;;;;5029488;28;20602;-81
2021/01/30 11:18:39;;;;;;;9.23;7.30;;;3.10;99.90;;;;;;5031973;28;20770;-82
2021/01/30 11:21:08;;;;;;;10.03;7.07;;;3.10;99.90;;;;;;5049500;28;20225;-82
2021/01/30 11:23:48;;;;;;;8.37;6.73;;;3.20;99.90;;;;;;5048645;28;20295;-81
2021/01/30 11:26:17;;;;;;;9.17;7.33;;;3.30;99.90;;;;;;5030333;28;20250;-81
2021/01/30 11:28:44;;;;;;;8.23;6.70;;;3.20;99.90;;;;;;5029568;28;20313;-81
2021/01/30 11:31:13;;;;;;;10.27;7.00;;;3.20;99.90;;;;;;5029684;28;20190;-81
2021/01/30 11:33:39;;;;;;;10.03;7.70;;;3.20;99.90;;;;;;5029356;28;21266;-80
2021/01/30 11:36:08;;;;;;;7.27;6.10;;;3.30;99.90;;;;;;5028808;28;20209;-81
2021/01/30 11:38:35;;;;;;;8.70;7.07;;;3.30;99.90;;;;;;5028038;28;20202;-82
2021/01/30 11:41:02;;;;;;;9.37;6.57;;;3.40;99.90;;;;;;5028517;28;20241;-79
2021/01/30 11:43:29;;;;;;;10.90;7.03;;;3.40;99.90;;;;;;5027925;28;20276;-80
2021/01/30 11:45:55;;;;;;;9.13;7.57;;;3.50;99.90;;;;;;5029817;28;20735;-80
2021/01/30 11:48:23;;;;;;;8.53;7.00;;;3.50;99.90;;;;;;5027288;28;20206;-81
2021/01/30 11:50:51;;;;;;;9.37;7.10;;;3.60;99.90;;;;;;5041794;28;20225;-80
2021/01/30 11:53:19;;;;;;;9.47;6.87;;;3.70;99.90;;;;;;5048330;28;20198;-82
2021/01/30 11:55:49;;;;;;;10.07;7.73;;;3.70;99.90;;;;;;5048743;28;20209;-81
2021/01/30 11:58:17;;;;;;;9.17;7.27;;;3.80;99.90;;;;;;5048457;28;20209;-81
2021/01/30 12:00:44;;;;;;;7.83;6.37;;;3.80;99.90;;;;;;5048636;28;20612;-80
2021/01/30 12:03:21;;;;;;;8.33;6.53;;;3.70;99.90;;;;;;5050081;28;20625;-82
2021/01/30 12:05:47;;;;;;;8.47;7.50;;;3.70;99.90;;;;;;5049715;28;20667;-81
2021/01/30 12:08:13;;;;;;;10.03;7.10;;;3.70;99.90;;;;;;5049106;28;20209;-81
2021/01/30 12:10:39;;;;;;;10.13;7.10;;;3.70;99.90;;;;;;5047471;28;20190;-79
2021/01/30 12:15:33;;;;;;;8.80;6.90;;;3.70;99.90;;;;;;5589836;22;20226;-80
2021/01/30 12:17:59;;;;;;;10.30;7.30;;;3.70;99.90;;;;;;5025430;28;20222;-80
2021/01/30 12:20:28;;;;;;;8.57;7.07;;;3.70;99.90;;;;;;5019075;28;20198;-81
2021/01/30 12:22:57;;;;;;;7.87;6.80;;;3.70;99.90;;;;;;5005864;28;20231;-79
2021/01/30 12:25:23;;;;;;;7.17;6.07;;;3.70;99.90;;;;;;5007535;28;20207;-79
2021/01/30 12:27:52;;;;;;;8.83;6.47;;;3.80;99.90;;;;;;5012972;28;20231;-80
2021/01/30 12:30:19;;;;;;;9.77;6.90;;;3.70;99.90;;;;;;5006720;28;20219;-81
2021/01/30 12:32:47;;;;;;;7.67;6.03;;;3.70;99.90;;;;;;5006937;28;20207;-81
2021/01/30 12:35:15;;;;;;;8.53;6.40;;;3.60;99.90;;;;;;5007285;28;20218;-79
2021/01/30 12:37:41;;;;;;;8.47;6.50;;;3.60;99.90;;;;;;5006223;28;20199;-81
2021/01/30 12:40:08;;;;;;;7.17;6.03;;;3.60;99.90;;;;;;5007685;28;20210;-83
2021/01/30 12:42:35;;;;;;;8.47;6.17;;;3.70;99.90;;;;;;5007458;28;20235;-81
2021/01/30 12:45:02;;;;;;;8.40;6.23;;;3.60;99.90;;;;;;5007889;28;20207;-82
2021/01/30 12:47:30;;;;;;;7.80;6.40;;;3.60;99.90;;;;;;5009543;28;20199;-83
2021/01/30 12:49:57;;;;;;;9.20;6.53;;;3.60;99.90;;;;;;5008286;28;20252;-82
2021/01/30 12:52:24;;;;;;;7.90;6.57;;;3.60;99.90;;;;;;5009157;28;20196;-85
2021/01/30 12:54:50;;;;;;;10.10;6.87;;;3.70;99.90;;;;;;5009684;28;20207;-82
2021/01/30 12:57:17;;;;;;;8.37;6.30;;;3.70;99.90;;;;;;5008964;28;20200;-81
2021/01/30 12:59:43;;;;;;;7.87;6.30;;;3.70;99.90;;;;;;4992527;28;20212;-80
2021/01/30 13:02:10;;;;;;;7.77;6.60;;;3.70;99.90;;;;;;4989323;28;20227;-81
2021/01/30 13:04:36;;;;;;;10.43;7.30;;;3.60;99.90;;;;;;4994727;28;20670;-80
2021/01/30 13:07:04;;;;;;;8.80;6.63;;;3.60;99.90;;;;;;5005798;28;20208;-79
2021/01/30 13:09:31;;;;;;;9.17;7.50;;;3.60;99.90;;;;;;5008314;28;20258;-81
2021/01/30 13:11:57;;;;;;;9.33;7.13;;;3.60;99.90;;;;;;5007233;28;20742;-81
2021/01/30 13:14:24;;;;;;;11.13;8.23;;;3.60;99.90;;;;;;5007022;28;20257;-81
2021/01/30 13:16:50;;;;;;;12.63;8.23;;;3.60;99.90;;;;;;5006378;28;20230;-82
2021/01/30 13:19:17;;;;;;;9.93;7.93;;;3.60;99.90;;;;;;5005964;28;20655;-82
2021/01/30 13:21:45;;;;;;;11.13;8.70;;;3.50;99.90;;;;;;5007319;28;20524;-82
2021/01/30 13:24:13;;;;;;;11.30;8.67;;;3.40;99.90;;;;;;5008444;28;20792;-82
2021/01/30 13:26:40;;;;;;;10.97;8.03;;;3.30;99.90;;;;;;5007569;28;20518;-82
2021/01/30 13:29:07;;;;;;;11.00;8.67;;;3.40;99.90;;;;;;5006416;28;20221;-82
2021/01/30 13:31:40;;;;;;;11.10;8.57;;;3.30;99.90;;;;;;5007079;28;20978;-82
2021/01/30 13:34:06;;;;;;;12.07;9.13;;;3.30;99.90;;;;;;5005818;28;20211;-82
2021/01/30 13:36:33;;;;;;;13.10;9.70;;;3.20;99.90;;;;;;5006356;28;20206;-81